sensor_id;sensor_type;location;lat;lon;timestamp;pressure;altitude;pressure_sealevel;temperature;humidity
28588;BME280;15787;49.662;10.162;2023-05-23T00:01:54;98763.78;;;17.74;93.46
28588;BME280;15787;49.662;10.162;2023-05-23T00:04:29;98753.66;;;17.82;93.43
28588;BME280;15787;49.662;10.162;2023-05-23T00:07:02;98750.34;;;17.83;93.71
28588;BME280;15787;49.662;10.162;2023-05-23T00:22:11;98752.72;;;17.46;96.01
28588;BME280;15787;49.662;10.162;2023-05-23T00:24:43;98760.81;;;17.39;96.72
28588;BME280;15787;49.662;10.162;2023-05-23T00:27:16;98766.16;;;17.51;96.48
28588;BME280;15787;49.662;10.162;2023-05-23T00:29:49;98770.63;;;17.43;96.64
28588;BME280;15787;49.662;10.162;2023-05-23T00:32:22;98771.41;;;17.44;96.43
28588;BME280;15787;49.662;10.162;2023-05-23T00:34:55;98768.47;;;17.38;97.29
28588;BME280;15787;49.662;10.162;2023-05-23T00:37:30;98771.72;;;17.46;96.52
28588;BME280;15787;49.662;10.162;2023-05-23T00:40:03;98772.84;;;17.39;96.94
28588;BME280;15787;49.662;10.162;2023-05-23T00:42:36;98775.19;;;17.41;97.28
28588;BME280;15787;49.662;10.162;2023-05-23T00:45:10;98776.66;;;17.36;97.82
28588;BME280;15787;49.662;10.162;2023-05-23T00:47:44;98778.69;;;17.36;98.03
28588;BME280;15787;49.662;10.162;2023-05-23T00:50:19;98769.06;;;17.42;97.98
28588;BME280;15787;49.662;10.162;2023-05-23T00:52:54;98778.03;;;17.41;98.05
28588;BME280;15787;49.662;10.162;2023-05-23T00:55:28;98789.50;;;17.37;98.64
28588;BME280;15787;49.662;10.162;2023-05-23T00:58:01;98787.03;;;17.30;98.54
28588;BME280;15787;49.662;10.162;2023-05-23T01:00:34;98793.53;;;17.22;99.25
28588;BME280;15787;49.662;10.162;2023-05-23T01:03:09;98783.31;;;17.24;99.19
28588;BME280;15787;49.662;10.162;2023-05-23T01:05:48;98786.38;;;17.35;99.18
28588;BME280;15787;49.662;10.162;2023-05-23T01:08:22;98790.38;;;17.29;98.88
28588;BME280;15787;49.662;10.162;2023-05-23T01:11:00;98787.06;;;17.45;98.73
28588;BME280;15787;49.662;10.162;2023-05-23T01:13:41;98796.41;;;17.36;98.70
28588;BME280;15787;49.662;10.162;2023-05-23T01:16:17;98786.78;;;17.43;98.79
28588;BME280;15787;49.662;10.162;2023-05-23T01:18:57;98783.94;;;17.28;98.75
28588;BME280;15787;49.662;10.162;2023-05-23T01:21:33;98786.16;;;17.62;98.31
28588;BME280;15787;49.662;10.162;2023-05-23T01:24:31;98787.50;;;17.67;96.16
28588;BME280;15787;49.662;10.162;2023-05-23T01:27:18;98794.72;;;17.68;95.50
28588;BME280;15787;49.662;10.162;2023-05-23T01:29:57;98783.03;;;17.75;95.04
28588;BME280;15787;49.662;10.162;2023-05-23T01:32:34;98782.66;;;17.67;95.20
28588;BME280;15787;49.662;10.162;2023-05-23T01:35:08;98784.91;;;17.63;95.98
28588;BME280;15787;49.662;10.162;2023-05-23T01:37:43;98793.38;;;17.40;97.01
28588;BME280;15787;49.662;10.162;2023-05-23T01:40:17;98791.84;;;17.39;97.82
28588;BME280;15787;49.662;10.162;2023-05-23T01:42:50;98797.94;;;17.23;98.41
28588;BME280;15787;49.662;10.162;2023-05-23T01:45:27;98806.94;;;17.12;100.00
28588;BME280;15787;49.662;10.162;2023-05-23T01:48:01;98798.31;;;17.16;100.00
28588;BME280;15787;49.662;10.162;2023-05-23T01:50:35;98808.56;;;17.04;100.00
28588;BME280;15787;49.662;10.162;2023-05-23T01:53:08;98810.59;;;17.03;100.00
28588;BME280;15787;49.662;10.162;2023-05-23T01:55:42;98816.59;;;16.96;100.00
28588;BME280;15787;49.662;10.162;2023-05-23T01:58:15;98813.69;;;17.29;100.00
28588;BME280;15787;49.662;10.162;2023-05-23T02:00:51;98805.94;;;17.00;100.00
28588;BME280;15787;49.662;10.162;2023-05-23T02:03:24;98811.31;;;17.13;100.00
28588;BME280;15787;49.662;10.162;2023-05-23T02:05:57;98810.53;;;17.36;100.00
28588;BME280;15787;49.662;10.162;2023-05-23T02:08:31;98808.94;;;17.35;100.00
28588;BME280;15787;49.662;10.162;2023-05-23T02:11:04;98814.03;;;17.46;100.00
28588;BME280;15787;49.662;10.162;2023-05-23T02:13:39;98813.69;;;17.53;99.99
28588;BME280;15787;49.662;10.162;2023-05-23T02:16:13;98814.22;;;17.66;99.32
28588;BME280;15787;49.662;10.162;2023-05-23T02:18:46;98816.53;;;17.53;99.18
28588;BME280;15787;49.662;10.162;2023-05-23T02:21:19;98817.50;;;17.64;99.62
28588;BME280;15787;49.662;10.162;2023-05-23T02:23:52;98817.66;;;17.46;100.00
28588;BME280;15787;49.662;10.162;2023-05-23T02:26:25;98814.59;;;17.59;100.00
28588;BME280;15787;49.662;10.162;2023-05-23T02:28:58;98818.38;;;17.56;99.85
28588;BME280;15787;49.662;10.162;2023-05-23T02:31:33;98831.84;;;17.52;99.93
28588;BME280;15787;49.662;10.162;2023-05-23T02:34:06;98830.38;;;17.42;100.00
28588;BME280;15787;49.662;10.162;2023-05-23T02:36:38;98825.53;;;17.19;100.00
28588;BME280;15787;49.662;10.162;2023-05-23T02:39:11;98832.56;;;17.23;100.00
28588;BME280;15787;49.662;10.162;2023-05-23T02:41:46;98843.78;;;17.08;100.00
28588;BME280;15787;49.662;10.162;2023-05-23T02:44:19;98833.81;;;17.22;100.00
28588;BME280;15787;49.662;10.162;2023-05-23T02:46:53;98833.97;;;17.42;100.00
28588;BME280;15787;49.662;10.162;2023-05-23T02:49:26;98834.25;;;17.30;100.00
28588;BME280;15787;49.662;10.162;2023-05-23T02:52:00;98840.13;;;17.41;100.00
28588;BME280;15787;49.662;10.162;2023-05-23T02:54:33;98838.34;;;17.29;100.00
28588;BME280;15787;49.662;10.162;2023-05-23T02:57:06;98838.09;;;17.41;100.00
28588;BME280;15787;49.662;10.162;2023-05-23T02:59:41;98837.75;;;17.39;100.00
28588;BME280;15787;49.662;10.162;2023-05-23T03:02:16;98839.19;;;17.20;100.00
28588;BME280;15787;49.662;10.162;2023-05-23T03:04:50;98829.66;;;17.32;100.00
28588;BME280;15787;49.662;10.162;2023-05-23T03:07:26;98828.25;;;17.13;100.00
28588;BME280;15787;49.662;10.162;2023-05-23T03:10:00;98826.16;;;17.23;100.00
28588;BME280;15787;49.662;10.162;2023-05-23T03:12:33;98831.91;;;17.04;100.00
28588;BME280;15787;49.662;10.162;2023-05-23T03:15:08;98831.50;;;16.97;100.00
28588;BME280;15787;49.662;10.162;2023-05-23T03:17:45;98829.00;;;17.14;100.00
28588;BME280;15787;49.662;10.162;2023-05-23T03:20:20;98828.91;;;16.84;100.00
28588;BME280;15787;49.662;10.162;2023-05-23T03:22:53;98829.63;;;16.70;100.00
28588;BME280;15787;49.662;10.162;2023-05-23T03:25:27;98833.44;;;16.49;100.00
28588;BME280;15787;49.662;10.162;2023-05-23T03:28:00;98834.09;;;16.44;100.00
28588;BME280;15787;49.662;10.162;2023-05-23T03:30:33;98834.09;;;16.44;100.00
28588;BME280;15787;49.662;10.162;2023-05-23T03:33:08;98835.97;;;16.38;100.00
28588;BME280;15787;49.662;10.162;2023-05-23T03:35:41;98838.34;;;16.30;100.00
28588;BME280;15787;49.662;10.162;2023-05-23T03:38:15;98848.63;;;16.52;100.00
28588;BME280;15787;49.662;10.162;2023-05-23T03:40:48;98853.03;;;16.43;100.00
28588;BME280;15787;49.662;10.162;2023-05-23T03:43:21;98854.91;;;16.47;100.00
28588;BME280;15787;49.662;10.162;2023-05-23T03:45:54;98861.78;;;16.45;100.00
28588;BME280;15787;49.662;10.162;2023-05-23T03:48:29;98865.50;;;16.61;100.00
28588;BME280;15787;49.662;10.162;2023-05-23T03:51:02;98872.88;;;16.58;100.00
28588;BME280;15787;49.662;10.162;2023-05-23T03:53:35;98872.91;;;16.49;100.00
28588;BME280;15787;49.662;10.162;2023-05-23T03:56:08;98875.72;;;16.49;100.00
28588;BME280;15787;49.662;10.162;2023-05-23T03:58:41;98880.88;;;16.60;100.00
28588;BME280;15787;49.662;10.162;2023-05-23T04:01:17;98875.22;;;16.51;100.00
28588;BME280;15787;49.662;10.162;2023-05-23T04:03:52;98885.59;;;16.54;100.00
28588;BME280;15787;49.662;10.162;2023-05-23T04:06:28;98884.34;;;16.55;100.00
28588;BME280;15787;49.662;10.162;2023-05-23T04:09:05;98884.34;;;16.55;100.00
28588;BME280;15787;49.662;10.162;2023-05-23T04:11:43;98883.56;;;16.54;100.00
28588;BME280;15787;49.662;10.162;2023-05-23T04:14:16;98885.59;;;16.54;100.00
28588;BME280;15787;49.662;10.162;2023-05-23T04:16:50;98890.41;;;16.62;100.00
28588;BME280;15787;49.662;10.162;2023-05-23T04:19:25;98891.66;;;16.70;100.00
28588;BME280;15787;49.662;10.162;2023-05-23T04:21:59;98896.66;;;16.66;100.00
28588;BME280;15787;49.662;10.162;2023-05-23T04:24:32;98891.00;;;16.66;100.00
28588;BME280;15787;49.662;10.162;2023-05-23T04:27:05;98897.59;;;16.72;100.00
28588;BME280;15787;49.662;10.162;2023-05-23T04:29:40;98895.53;;;16.73;100.00
28588;BME280;15787;49.662;10.162;2023-05-23T04:32:13;98895.13;;;16.65;100.00
28588;BME280;15787;49.662;10.162;2023-05-23T04:34:48;98894.13;;;16.68;100.00
28588;BME280;15787;49.662;10.162;2023-05-23T04:37:22;98897.88;;;16.74;100.00
28588;BME280;15787;49.662;10.162;2023-05-23T04:39:57;98899.88;;;16.83;100.00
28588;BME280;15787;49.662;10.162;2023-05-23T04:42:54;98896.09;;;16.86;100.00
28588;BME280;15787;49.662;10.162;2023-05-23T04:45:39;98897.00;;;16.92;100.00
28588;BME280;15787;49.662;10.162;2023-05-23T04:48:31;98879.72;;;16.99;100.00
28588;BME280;15787;49.662;10.162;2023-05-23T04:51:08;98889.03;;;17.14;100.00
28588;BME280;15787;49.662;10.162;2023-05-23T04:53:55;98890.53;;;17.24;100.00
28588;BME280;15787;49.662;10.162;2023-05-23T04:56:29;98888.06;;;17.26;100.00
28588;BME280;15787;49.662;10.162;2023-05-23T04:59:02;98896.03;;;17.28;100.00
28588;BME280;15787;49.662;10.162;2023-05-23T05:01:35;98895.28;;;17.42;100.00
28588;BME280;15787;49.662;10.162;2023-05-23T05:04:12;98903.47;;;17.40;100.00
28588;BME280;15787;49.662;10.162;2023-05-23T05:06:47;98900.28;;;17.47;100.00
28588;BME280;15787;49.662;10.162;2023-05-23T05:09:21;98898.13;;;17.42;100.00
28588;BME280;15787;49.662;10.162;2023-05-23T05:11:55;98906.06;;;17.52;100.00
28588;BME280;15787;49.662;10.162;2023-05-23T05:14:27;98896.78;;;17.52;100.00
28588;BME280;15787;49.662;10.162;2023-05-23T05:17:00;98917.00;;;17.59;100.00
28588;BME280;15787;49.662;10.162;2023-05-23T05:19:42;98905.25;;;17.76;100.00
28588;BME280;15787;49.662;10.162;2023-05-23T05:22:20;98908.22;;;17.96;100.00
28588;BME280;15787;49.662;10.162;2023-05-23T05:24:57;98909.78;;;17.97;100.00
28588;BME280;15787;49.662;10.162;2023-05-23T05:27:35;98915.56;;;18.02;100.00
28588;BME280;15787;49.662;10.162;2023-05-23T05:30:11;98914.78;;;18.16;100.00
28588;BME280;15787;49.662;10.162;2023-05-23T05:32:56;98919.88;;;18.12;100.00
28588;BME280;15787;49.662;10.162;2023-05-23T05:35:30;98926.78;;;18.26;100.00
28588;BME280;15787;49.662;10.162;2023-05-23T05:38:04;98927.56;;;18.26;99.70
28588;BME280;15787;49.662;10.162;2023-05-23T05:40:39;98925.91;;;18.20;98.98
28588;BME280;15787;49.662;10.162;2023-05-23T05:43:13;98931.75;;;18.16;98.14
28588;BME280;15787;49.662;10.162;2023-05-23T05:45:46;98937.41;;;18.16;98.06
28588;BME280;15787;49.662;10.162;2023-05-23T05:48:19;98941.88;;;18.23;98.13
28588;BME280;15787;49.662;10.162;2023-05-23T05:50:52;98954.53;;;18.13;98.57
28588;BME280;15787;49.662;10.162;2023-05-23T05:53:27;98960.84;;;18.08;98.67
28588;BME280;15787;49.662;10.162;2023-05-23T05:56:04;98964.47;;;18.08;99.25
28588;BME280;15787;49.662;10.162;2023-05-23T05:58:40;98965.63;;;18.02;98.96
28588;BME280;15787;49.662;10.162;2023-05-23T06:01:16;98963.75;;;17.99;99.04
28588;BME280;15787;49.662;10.162;2023-05-23T06:03:49;98969.00;;;17.91;99.78
28588;BME280;15787;49.662;10.162;2023-05-23T06:06:23;98971.66;;;17.95;100.00
28588;BME280;15787;49.662;10.162;2023-05-23T06:08:58;98971.47;;;17.75;100.00
28588;BME280;15787;49.662;10.162;2023-05-23T06:11:31;98968.34;;;17.96;100.00
28588;BME280;15787;49.662;10.162;2023-05-23T06:14:05;98975.72;;;17.94;100.00
28588;BME280;15787;49.662;10.162;2023-05-23T06:16:41;98974.50;;;18.09;100.00
28588;BME280;15787;49.662;10.162;2023-05-23T06:19:15;98970.50;;;18.16;99.59
28588;BME280;15787;49.662;10.162;2023-05-23T06:21:49;98976.97;;;18.16;97.78
28588;BME280;15787;49.662;10.162;2023-05-23T06:24:27;98981.50;;;17.99;98.40
28588;BME280;15787;49.662;10.162;2023-05-23T06:27:00;98977.91;;;18.13;98.06
28588;BME280;15787;49.662;10.162;2023-05-23T06:29:33;98980.09;;;18.33;97.57
28588;BME280;15787;49.662;10.162;2023-05-23T06:32:07;98982.34;;;18.44;95.28
28588;BME280;15787;49.662;10.162;2023-05-23T06:34:40;98974.81;;;18.26;93.87
28588;BME280;15787;49.662;10.162;2023-05-23T06:37:13;98982.22;;;18.23;93.94
28588;BME280;15787;49.662;10.162;2023-05-23T06:39:47;98975.59;;;18.26;93.70
28588;BME280;15787;49.662;10.162;2023-05-23T06:42:21;98985.31;;;18.64;93.59
28588;BME280;15787;49.662;10.162;2023-05-23T06:45:09;98988.31;;;19.19;89.98
28588;BME280;15787;49.662;10.162;2023-05-23T06:47:44;98996.66;;;19.42;87.42
28588;BME280;15787;49.662;10.162;2023-05-23T06:50:19;98996.03;;;19.53;85.43
28588;BME280;15787;49.662;10.162;2023-05-23T06:52:53;98995.88;;;19.27;83.63
28588;BME280;15787;49.662;10.162;2023-05-23T06:55:28;98989.84;;;19.20;83.69
28588;BME280;15787;49.662;10.162;2023-05-23T06:58:01;99006.06;;;19.05;83.63
28588;BME280;15787;49.662;10.162;2023-05-23T07:00:37;99004.44;;;18.98;83.37
28588;BME280;15787;49.662;10.162;2023-05-23T07:03:25;98997.31;;;18.88;83.43
28588;BME280;15787;49.662;10.162;2023-05-23T07:06:03;99013.78;;;19.19;83.86
28588;BME280;15787;49.662;10.162;2023-05-23T07:08:37;99013.31;;;19.06;82.06
28588;BME280;15787;49.662;10.162;2023-05-23T07:11:11;99022.38;;;19.10;83.04
28588;BME280;15787;49.662;10.162;2023-05-23T07:13:47;99014.66;;;19.39;83.05
28588;BME280;15787;49.662;10.162;2023-05-23T07:16:39;99026.31;;;19.32;82.07
28588;BME280;15787;49.662;10.162;2023-05-23T07:19:12;99020.63;;;18.98;81.85
28588;BME280;15787;49.662;10.162;2023-05-23T07:21:49;99025.69;;;18.79;81.87
28588;BME280;15787;49.662;10.162;2023-05-23T07:24:23;99028.50;;;19.37;81.87
28588;BME280;15787;49.662;10.162;2023-05-23T07:27:00;99026.81;;;19.60;80.83
28588;BME280;15787;49.662;10.162;2023-05-23T07:29:34;99029.00;;;19.71;80.09
28588;BME280;15787;49.662;10.162;2023-05-23T07:32:07;99040.91;;;19.25;79.61
28588;BME280;15787;49.662;10.162;2023-05-23T07:34:41;99035.25;;;18.81;80.34
28588;BME280;15787;49.662;10.162;2023-05-23T07:37:14;99028.34;;;18.68;81.16
28588;BME280;15787;49.662;10.162;2023-05-23T07:39:49;99033.22;;;18.82;81.66
28588;BME280;15787;49.662;10.162;2023-05-23T07:42:23;99036.81;;;18.68;81.00
28588;BME280;15787;49.662;10.162;2023-05-23T07:44:56;99047.22;;;18.47;81.27
28588;BME280;15787;49.662;10.162;2023-05-23T07:47:29;99045.09;;;18.57;81.35
28588;BME280;15787;49.662;10.162;2023-05-23T07:50:03;99054.94;;;18.61;80.98
28588;BME280;15787;49.662;10.162;2023-05-23T07:52:36;99061.50;;;18.44;81.38
28588;BME280;15787;49.662;10.162;2023-05-23T07:55:10;99053.69;;;18.39;81.03
28588;BME280;15787;49.662;10.162;2023-05-23T07:57:45;99053.13;;;18.11;81.04
28588;BME280;15787;49.662;10.162;2023-05-23T08:00:19;99054.72;;;18.12;80.75
28588;BME280;15787;49.662;10.162;2023-05-23T08:02:58;99051.81;;;18.21;80.65
28588;BME280;15787;49.662;10.162;2023-05-23T08:05:37;99063.19;;;18.12;80.49
28588;BME280;15787;49.662;10.162;2023-05-23T08:08:11;99062.53;;;18.17;80.97
28588;BME280;15787;49.662;10.162;2023-05-23T08:10:44;99067.16;;;18.05;80.21
28588;BME280;15787;49.662;10.162;2023-05-23T08:13:29;99063.13;;;17.97;79.71
28588;BME280;15787;49.662;10.162;2023-05-23T08:16:22;99063.72;;;18.25;79.55
28588;BME280;15787;49.662;10.162;2023-05-23T08:18:55;99071.81;;;18.56;78.74
28588;BME280;15787;49.662;10.162;2023-05-23T08:21:28;99077.47;;;18.56;77.89
28588;BME280;15787;49.662;10.162;2023-05-23T08:24:01;99076.41;;;18.68;77.82
28588;BME280;15787;49.662;10.162;2023-05-23T08:26:35;99071.94;;;18.76;75.85
28588;BME280;15787;49.662;10.162;2023-05-23T08:29:12;99076.50;;;18.59;75.70
28588;BME280;15787;49.662;10.162;2023-05-23T08:31:46;99074.56;;;18.41;75.16
28588;BME280;15787;49.662;10.162;2023-05-23T08:34:20;99074.00;;;18.75;75.44
28588;BME280;15787;49.662;10.162;2023-05-23T08:36:53;99079.41;;;18.50;74.37
28588;BME280;15787;49.662;10.162;2023-05-23T08:39:26;99084.63;;;18.80;75.06
28588;BME280;15787;49.662;10.162;2023-05-23T08:42:16;99086.94;;;18.53;74.69
28588;BME280;15787;49.662;10.162;2023-05-23T08:44:51;99085.28;;;18.61;75.76
28588;BME280;15787;49.662;10.162;2023-05-23T08:47:29;99089.78;;;18.44;75.97
28588;BME280;15787;49.662;10.162;2023-05-23T08:50:07;99097.16;;;18.26;76.26
28588;BME280;15787;49.662;10.162;2023-05-23T08:52:47;99095.03;;;18.60;75.73
28588;BME280;15787;49.662;10.162;2023-05-23T08:55:23;99101.53;;;18.51;76.85
28588;BME280;15787;49.662;10.162;2023-05-23T08:57:57;99092.09;;;18.69;75.87
28588;BME280;15787;49.662;10.162;2023-05-23T09:00:52;99090.41;;;18.86;75.53
28588;BME280;15787;49.662;10.162;2023-05-23T09:03:27;99087.13;;;18.64;73.54
28588;BME280;15787;49.662;10.162;2023-05-23T09:06:13;99090.78;;;18.41;73.32
28588;BME280;15787;49.662;10.162;2023-05-23T09:08:47;99097.91;;;19.04;73.15
28588;BME280;15787;49.662;10.162;2023-05-23T09:11:23;99093.16;;;19.74;72.55
28588;BME280;15787;49.662;10.162;2023-05-23T09:13:56;99098.31;;;20.25;71.98
28588;BME280;15787;49.662;10.162;2023-05-23T09:16:32;99097.81;;;20.46;69.87
28588;BME280;15787;49.662;10.162;2023-05-23T09:19:13;99103.38;;;20.81;70.11
28588;BME280;15787;49.662;10.162;2023-05-23T09:21:54;99098.38;;;21.22;68.00
28588;BME280;15787;49.662;10.162;2023-05-23T09:24:35;99095.56;;;21.53;67.94
28588;BME280;15787;49.662;10.162;2023-05-23T09:27:11;99106.19;;;21.58;65.99
28588;BME280;15787;49.662;10.162;2023-05-23T09:29:44;99097.75;;;21.38;65.61
28588;BME280;15787;49.662;10.162;2023-05-23T09:32:20;99097.56;;;21.78;62.50
28588;BME280;15787;49.662;10.162;2023-05-23T09:34:58;99095.94;;;22.03;65.62
28588;BME280;15787;49.662;10.162;2023-05-23T09:37:35;99098.59;;;21.18;65.12
28588;BME280;15787;49.662;10.162;2023-05-23T09:40:11;99098.91;;;21.00;65.61
28588;BME280;15787;49.662;10.162;2023-05-23T09:43:01;99098.63;;;21.50;66.48
28588;BME280;15787;49.662;10.162;2023-05-23T09:45:34;99089.81;;;21.16;65.37
28588;BME280;15787;49.662;10.162;2023-05-23T09:48:12;99091.81;;;21.10;66.08
28588;BME280;15787;49.662;10.162;2023-05-23T09:50:45;99107.06;;;20.87;67.36
28588;BME280;15787;49.662;10.162;2023-05-23T09:53:23;99092.47;;;21.00;66.68
28588;BME280;15787;49.662;10.162;2023-05-23T09:55:58;99106.25;;;20.61;67.18
28588;BME280;15787;49.662;10.162;2023-05-23T09:58:32;99107.06;;;20.47;68.06
28588;BME280;15787;49.662;10.162;2023-05-23T10:01:09;99110.19;;;20.69;67.63
28588;BME280;15787;49.662;10.162;2023-05-23T10:03:48;99113.53;;;20.67;67.76
28588;BME280;15787;49.662;10.162;2023-05-23T10:06:25;99115.03;;;20.63;67.93
28588;BME280;15787;49.662;10.162;2023-05-23T10:09:03;99103.03;;;20.73;67.19
28588;BME280;15787;49.662;10.162;2023-05-23T10:14:55;99106.56;;;20.68;67.19
28588;BME280;15787;49.662;10.162;2023-05-23T10:17:35;99111.84;;;20.35;67.47
28588;BME280;15787;49.662;10.162;2023-05-23T10:20:14;99111.31;;;20.16;68.01
28588;BME280;15787;49.662;10.162;2023-05-23T10:22:48;99110.03;;;19.97;67.92
28588;BME280;15787;49.662;10.162;2023-05-23T10:25:21;99108.25;;;20.00;68.55
28588;BME280;15787;49.662;10.162;2023-05-23T10:27:56;99112.91;;;19.68;69.75
28588;BME280;15787;49.662;10.162;2023-05-23T10:30:33;99116.69;;;20.14;69.41
28588;BME280;15787;49.662;10.162;2023-05-23T10:33:07;99119.13;;;19.52;70.56
28588;BME280;15787;49.662;10.162;2023-05-23T10:35:52;99115.22;;;19.49;70.31
28588;BME280;15787;49.662;10.162;2023-05-23T10:38:34;99117.13;;;19.58;70.73
28588;BME280;15787;49.662;10.162;2023-05-23T10:41:21;99118.41;;;19.57;70.63
28588;BME280;15787;49.662;10.162;2023-05-23T10:46:50;99126.19;;;19.77;69.86
28588;BME280;15787;49.662;10.162;2023-05-23T10:49:36;99119.97;;;19.73;69.82
28588;BME280;15787;49.662;10.162;2023-05-23T10:52:15;99127.34;;;19.85;70.57
28588;BME280;15787;49.662;10.162;2023-05-23T10:54:51;99129.84;;;19.63;69.37
28588;BME280;15787;49.662;10.162;2023-05-23T10:57:25;99121.97;;;19.87;69.80
28588;BME280;15787;49.662;10.162;2023-05-23T10:59:59;99125.31;;;19.85;70.89
28588;BME280;15787;49.662;10.162;2023-05-23T11:02:32;99131.41;;;19.98;69.87
28588;BME280;15787;49.662;10.162;2023-05-23T11:05:18;99124.72;;;19.81;69.58
28588;BME280;15787;49.662;10.162;2023-05-23T11:08:07;99126.69;;;19.61;70.89
28588;BME280;15787;49.662;10.162;2023-05-23T11:10:54;99129.94;;;19.53;71.34
28588;BME280;15787;49.662;10.162;2023-05-23T11:13:55;99128.78;;;19.45;71.62
28588;BME280;15787;49.662;10.162;2023-05-23T11:16:40;99140.47;;;19.68;70.75
28588;BME280;15787;49.662;10.162;2023-05-23T11:19:20;99143.38;;;19.73;71.09
28588;BME280;15787;49.662;10.162;2023-05-23T11:21:57;99137.84;;;19.99;70.81
28588;BME280;15787;49.662;10.162;2023-05-23T11:24:49;99135.19;;;19.75;69.76
28588;BME280;15787;49.662;10.162;2023-05-23T11:27:27;99139.25;;;19.89;70.84
28588;BME280;15787;49.662;10.162;2023-05-23T11:30:02;99137.41;;;19.86;70.46
28588;BME280;15787;49.662;10.162;2023-05-23T11:32:36;99139.72;;;19.52;70.94
28588;BME280;15787;49.662;10.162;2023-05-23T11:35:10;99143.31;;;19.53;71.55
28588;BME280;15787;49.662;10.162;2023-05-23T11:37:43;99133.88;;;19.91;71.08
28588;BME280;15787;49.662;10.162;2023-05-23T11:40:26;99133.16;;;19.61;71.68
28588;BME280;15787;49.662;10.162;2023-05-23T11:43:00;99141.56;;;19.70;71.97
28588;BME280;15787;49.662;10.162;2023-05-23T11:45:34;99144.09;;;19.53;72.61
28588;BME280;15787;49.662;10.162;2023-05-23T11:48:09;99138.88;;;19.81;72.16
28588;BME280;15787;49.662;10.162;2023-05-23T11:50:44;99145.47;;;19.43;72.18
28588;BME280;15787;49.662;10.162;2023-05-23T11:53:19;99141.19;;;19.63;72.01
28588;BME280;15787;49.662;10.162;2023-05-23T11:55:55;99143.16;;;19.42;72.03
28588;BME280;15787;49.662;10.162;2023-05-23T11:58:30;99147.50;;;19.14;71.92
28588;BME280;15787;49.662;10.162;2023-05-23T12:01:04;99143.88;;;19.13;72.06
28588;BME280;15787;49.662;10.162;2023-05-23T12:03:44;99155.31;;;19.19;71.96
28588;BME280;15787;49.662;10.162;2023-05-23T12:06:18;99150.91;;;19.32;72.30
28588;BME280;15787;49.662;10.162;2023-05-23T12:08:52;99143.31;;;19.53;71.21
28588;BME280;15787;49.662;10.162;2023-05-23T12:11:30;99150.75;;;19.65;71.18
28588;BME280;15787;49.662;10.162;2023-05-23T12:14:03;99147.69;;;20.03;71.73
28588;BME280;15787;49.662;10.162;2023-05-23T12:16:37;99146.38;;;20.19;70.72
28588;BME280;15787;49.662;10.162;2023-05-23T12:19:10;99147.09;;;20.14;69.92
28588;BME280;15787;49.662;10.162;2023-05-23T12:21:44;99153.38;;;20.03;70.50
28588;BME280;15787;49.662;10.162;2023-05-23T12:24:19;99139.53;;;19.91;69.74
28588;BME280;15787;49.662;10.162;2023-05-23T12:26:57;99146.88;;;19.97;70.92
28588;BME280;15787;49.662;10.162;2023-05-23T12:29:31;99149.88;;;19.59;70.89
28588;BME280;15787;49.662;10.162;2023-05-23T12:32:06;99151.31;;;19.40;71.90
28588;BME280;15787;49.662;10.162;2023-05-23T12:34:40;99155.03;;;19.46;71.93
28588;BME280;15787;49.662;10.162;2023-05-23T12:37:14;99149.75;;;19.53;71.72
28588;BME280;15787;49.662;10.162;2023-05-23T12:39:51;99150.16;;;19.46;72.58
28588;BME280;15787;49.662;10.162;2023-05-23T12:42:25;99158.94;;;19.48;72.66
28588;BME280;15787;49.662;10.162;2023-05-23T12:45:01;99150.63;;;19.74;72.73
28588;BME280;15787;49.662;10.162;2023-05-23T12:47:35;99151.81;;;19.68;73.01
28588;BME280;15787;49.662;10.162;2023-05-23T12:50:08;99149.44;;;19.66;71.70
28588;BME280;15787;49.662;10.162;2023-05-23T12:52:42;99148.66;;;19.66;71.79
28588;BME280;15787;49.662;10.162;2023-05-23T12:55:15;99147.16;;;19.50;72.10
28588;BME280;15787;49.662;10.162;2023-05-23T12:57:50;99151.22;;;19.64;71.99
28588;BME280;15787;49.662;10.162;2023-05-23T13:00:23;99149.41;;;19.81;72.20
28588;BME280;15787;49.662;10.162;2023-05-23T13:02:56;99152.31;;;20.01;72.10
28588;BME280;15787;49.662;10.162;2023-05-23T13:05:29;99141.44;;;20.49;71.04
28588;BME280;15787;49.662;10.162;2023-05-23T13:08:02;99145.91;;;20.21;71.13
28588;BME280;15787;49.662;10.162;2023-05-23T13:10:38;99136.31;;;20.33;71.13
28588;BME280;15787;49.662;10.162;2023-05-23T13:13:13;99148.84;;;19.77;71.67
28588;BME280;15787;49.662;10.162;2023-05-23T13:15:46;99144.44;;;19.76;72.13
28588;BME280;15787;49.662;10.162;2023-05-23T13:18:23;99136.75;;;19.76;73.08
28588;BME280;15787;49.662;10.162;2023-05-23T13:20:56;99141.94;;;19.63;72.45
28588;BME280;15787;49.662;10.162;2023-05-23T13:23:29;99150.91;;;19.76;72.10
28588;BME280;15787;49.662;10.162;2023-05-23T13:26:03;99151.28;;;19.84;71.95
28588;BME280;15787;49.662;10.162;2023-05-23T13:28:38;99151.97;;;19.79;73.46
28588;BME280;15787;49.662;10.162;2023-05-23T13:31:12;99152.16;;;19.90;73.08
28588;BME280;15787;49.662;10.162;2023-05-23T13:33:45;99146.84;;;19.63;72.44
28588;BME280;15787;49.662;10.162;2023-05-23T13:36:18;99147.53;;;19.43;73.43
28588;BME280;15787;49.662;10.162;2023-05-23T13:38:51;99146.25;;;19.44;73.33
28588;BME280;15787;49.662;10.162;2023-05-23T13:41:24;99147.44;;;19.52;74.17
28588;BME280;15787;49.662;10.162;2023-05-23T13:43:59;99143.44;;;19.44;73.11
28588;BME280;15787;49.662;10.162;2023-05-23T13:46:32;99146.66;;;19.51;73.44
28588;BME280;15787;49.662;10.162;2023-05-23T13:49:06;99150.75;;;19.65;72.96
28588;BME280;15787;49.662;10.162;2023-05-23T13:51:39;99150.25;;;19.67;73.68